Saturday, February 13, 2016, 5:46 AM EST

KIPT, Williamsport-lycoming County

Location: Montoursville, PA, United States Lat: 41.25
Local Time: 5:46 AM EST (10:46 GMT) Lon: -76.917
Time Zone: US/Eastern Elev: 528 ft

Show me the last for .
Show Decoded

2016-02-13 04:54 METAR KIPT 130954Z AUTO 30009KT 10SM SCT075 OVC090 M09/M18 A3001 RMK AO2 SNE0857
                 SLP169 P0000 T10891183 TSNO $ =
2016-02-13 03:54 METAR KIPT 130854Z AUTO 30015G22KT 8SM -SN FEW022 M08/M13 A2995 RMK AO2 SNB42
                 SLP152 P0000 60000 T10781133 53021 TSNO $ =
2016-02-13 02:54 METAR KIPT 130754Z AUTO 28010KT 10SM SCT039 M08/M13 A2991 RMK AO2 SLP138
                 T10781128 TSNO $ =
2016-02-13 01:54 METAR KIPT 130654Z AUTO 27008KT 10SM CLR M07/M11 A2989 RMK AO2 SLP131 T10721111
                 TSNO $ =
2016-02-13 00:54 METAR KIPT 130554Z AUTO 28007KT 10SM SCT032 M07/M12 A2989 RMK AO2 SLP131 60000
                 T10721117 11061 21078 56009 TSNO $ =
2016-02-12 23:54 METAR KIPT 130454Z AUTO 26008KT 9SM OVC034 M07/M12 A2989 RMK AO2
                 UPB33E52SNB40E49 SLP132 P0000 T10671117 410561139 TSNO $ =
2016-02-12 22:54 METAR KIPT 130354Z AUTO 10SM OVC038 M06/M11 A2991 RMK AO2 SLP136 T10611111 TSNO
                 $ =
2016-02-12 21:54 METAR KIPT 130254Z 28005KT 10SM SCT030 OVC100 M07/M12 A2992 RMK AO2 SNE0158
                 SLP140 P0000 60000 T10671117 57012 $ =
2016-02-12 20:54 METAR KIPT 130154Z 00000KT 9SM -SN BKN050 OVC070 M07/M11 A2993 RMK AO2 SNE14B47
                 SLP143 P0000 T10671106 $ =
2016-02-12 19:54 METAR KIPT 130054Z 26005KT 5SM -SN OVC037 M07/M11 A2995 RMK AO2 SLP150 P0000
                 T10671106 $ =
2016-02-12 18:54 METAR KIPT 122354Z 21004KT 9SM -SN FEW043 BKN050 OVC070 M07/M11 A2995 RMK AO2
                 SNE02B49 SLP153 P0000 60000 T10671111 11056 21067 56014 $ =
2016-02-12 17:54 METAR KIPT 122254Z 20005KT 7SM -SN BKN050 OVC080 M07/M11 A2996 RMK AO2 SNE12B28
                 SLP154 P0000 T10671111 $ =
2016-02-12 16:54 METAR KIPT 122154Z 26004KT 4SM -SN BKN034 OVC046 M06/M12 A2997 RMK AO2 SLP159
                 P0000 T10611117 $ =
2016-02-12 15:54 METAR KIPT 122054Z VRB03KT 4SM -SN BKN039 OVC050 M06/M12 A3000 RMK AO2 SLP166
                 P0000 60000 T10611122 56029 $ =
2016-02-12 14:54 METAR KIPT 121954Z 27003KT 7SM -SN OVC037 M06/M14 A3001 RMK AO2 SNB47 SLP170
                 P0000 T10611139 $ =
2016-02-12 13:54 METAR KIPT 121854Z 17003KT 10SM OVC044 M06/M15 A3004 RMK AO2 SLP181 T10611150 =
2016-02-12 12:54 METAR KIPT 121754Z 00000KT 10SM OVC047 M07/M15 A3008 RMK AO2 SLP196 60000
                 T10671150 11061 21139 58036 =
2016-02-12 11:54 METAR KIPT 121654Z 19004KT 10SM BKN042 M07/M15 A3012 RMK AO2 SLP209 T10721150 $
                 =
2016-02-12 10:54 METAR KIPT 121554Z 00000KT 10SM CLR M08/M14 A3017 RMK AO2 SLP225 T10831144 $ =
2016-02-12 09:54 METAR KIPT 121454Z 00000KT 10SM CLR M11/M16 A3019 RMK AO2 SLP233 60000 T11061156
                 58010 $ =
2016-02-12 08:54 METAR KIPT 121354Z 09006KT 10SM CLR M11/M15 A3021 RMK AO2 SLP239 T11061150 $ =
2016-02-12 07:54 METAR KIPT 121254Z 00000KT 9SM CLR M11/M16 A3022 RMK AO2 SNB00E01B40E49 SLP244
                 P0000 T11111156 $ =
2016-02-12 06:54 METAR KIPT 121154Z 10SM CLR M13/M17 A3022 RMK AO2 SNB10E19 SLP244 P0000 60000
                 T11281172 11089 21133 56001 $ =
2016-02-12 05:54 METAR KIPT 121054Z AUTO 00000KT 10SM CLR M12/M17 A3022 RMK AO2 SLP245 T11221167
                 TSNO $ =

Support USWX by starting your Amazon purchase here.